createdAt,value
2022-10-07T00:01:09.257Z,86.34
2022-10-07T00:03:36.472Z,85.84
2022-10-07T00:06:11.007Z,86.37
2022-10-07T00:08:39.417Z,86.43
2022-10-07T00:11:14.253Z,86.24
2022-10-07T00:13:44.636Z,86.46
2022-10-07T00:16:14.198Z,86.44
2022-10-07T00:18:42.098Z,86.57
2022-10-07T00:21:12.200Z,86.76
2022-10-07T00:23:40.218Z,86.06
2022-10-07T00:26:09.070Z,86.09
2022-10-07T00:28:37.069Z,86.29
2022-10-07T00:31:15.693Z,86.89
2022-10-07T00:33:43.171Z,86.90
2022-10-07T00:36:23.864Z,86.55
2022-10-07T00:38:53.249Z,87.11
2022-10-07T00:41:23.771Z,86.71
2022-10-07T00:43:50.677Z,86.50
2022-10-07T00:46:39.317Z,86.58
2022-10-07T00:49:14.030Z,86.29
2022-10-07T00:51:42.575Z,86.58
2022-10-07T00:54:13.634Z,86.23
2022-10-07T00:56:42.702Z,86.42
2022-10-07T00:59:13.395Z,86.72
2022-10-07T01:01:42.274Z,86.54
2022-10-07T01:04:15.180Z,86.63
2022-10-07T01:06:43.108Z,86.69
2022-10-07T01:09:11.727Z,86.53
2022-10-07T01:12:21.463Z,86.93
2022-10-07T01:15:03.323Z,86.47
2022-10-07T01:17:59.360Z,86.56
2022-10-07T01:20:35.051Z,86.31
2022-10-07T01:23:02.417Z,86.53
2022-10-07T01:25:34.627Z,86.81
2022-10-07T01:28:08.461Z,86.74
2022-10-07T01:30:41.513Z,87.20
2022-10-07T01:33:16.660Z,87.25
2022-10-07T01:35:47.380Z,87.20
2022-10-07T01:38:18.924Z,87.57
2022-10-07T01:40:57.913Z,87.21
2022-10-07T01:43:25.146Z,87.30
2022-10-07T01:45:54.829Z,86.84
2022-10-07T01:48:21.687Z,87.67
2022-10-07T01:50:51.451Z,87.93
2022-10-07T01:53:58.782Z,87.80
2022-10-07T01:56:50.330Z,88.52
2022-10-07T01:59:39.178Z,87.59
2022-10-07T02:02:36.732Z,87.94
2022-10-07T02:05:09.407Z,88.07
2022-10-07T02:07:52.091Z,87.82
2022-10-07T02:10:33.141Z,88.32
2022-10-07T02:13:32.574Z,88.01
2022-10-07T02:16:24.703Z,88.50
2022-10-07T02:18:52.668Z,87.85
2022-10-07T02:21:25.547Z,88.08
2022-10-07T02:23:54.270Z,88.70
2022-10-07T02:26:23.266Z,87.92
2022-10-07T02:28:52.864Z,87.73
2022-10-07T02:31:25.828Z,87.75
2022-10-07T02:33:54.680Z,87.46
2022-10-07T02:36:35.368Z,87.66
2022-10-07T02:39:03.018Z,87.53
2022-10-07T02:41:40.479Z,87.68
2022-10-07T02:44:19.115Z,87.55
2022-10-07T02:47:09.673Z,87.96
2022-10-07T02:49:41.010Z,87.93
2022-10-07T02:52:12.032Z,87.50
2022-10-07T02:54:44.155Z,88.25
2022-10-07T02:57:14.015Z,87.78
2022-10-07T02:59:41.712Z,87.68
2022-10-07T03:02:20.584Z,87.89
2022-10-07T03:04:48.716Z,87.94
2022-10-07T03:07:16.709Z,88.61
2022-10-07T03:09:43.754Z,88.27
2022-10-07T03:12:10.497Z,87.62
2022-10-07T03:14:37.400Z,88.16
2022-10-07T03:17:04.286Z,87.93
2022-10-07T03:19:31.174Z,87.86
2022-10-07T03:21:57.927Z,87.97
2022-10-07T03:24:24.765Z,88.23
2022-10-07T03:26:51.522Z,88.68
2022-10-07T03:29:18.867Z,88.70
2022-10-07T03:31:46.210Z,88.13
2022-10-07T03:34:13.014Z,88.20
2022-10-07T03:36:39.814Z,88.58
2022-10-07T03:39:06.542Z,88.38
2022-10-07T03:41:33.547Z,88.66
2022-10-07T03:44:00.310Z,88.22
2022-10-07T03:46:27.235Z,87.97
2022-10-07T03:48:54.352Z,88.13
2022-10-07T03:51:21.227Z,87.48
2022-10-07T03:53:48.917Z,88.57
2022-10-07T03:56:15.798Z,88.38
2022-10-07T03:58:42.549Z,88.21
2022-10-07T04:01:11.596Z,88.52
2022-10-07T04:03:38.351Z,88.31
2022-10-07T04:06:05.504Z,87.70
2022-10-07T04:08:33.626Z,88.04
2022-10-07T04:11:02.356Z,88.07
2022-10-07T04:13:29.265Z,88.54
2022-10-07T04:15:56.477Z,88.19
2022-10-07T04:18:24.505Z,88.51
2022-10-07T04:20:51.344Z,89.19
2022-10-07T04:23:18.864Z,88.51
2022-10-07T04:25:47.134Z,88.51
2022-10-07T04:28:23.137Z,88.54
2022-10-07T04:30:51.731Z,88.24
2022-10-07T04:33:19.509Z,88.50
2022-10-07T04:35:46.330Z,88.37
2022-10-07T04:38:16.078Z,88.23
2022-10-07T04:40:45.342Z,88.28
2022-10-07T04:43:20.520Z,88.78
2022-10-07T04:45:49.048Z,89.60
2022-10-07T04:48:18.856Z,89.63
2022-10-07T04:50:46.301Z,89.27
2022-10-07T04:53:14.789Z,89.10
2022-10-07T04:55:44.194Z,88.97
2022-10-07T04:58:11.170Z,88.81
2022-10-07T05:00:47.162Z,88.74
2022-10-07T05:03:15.719Z,88.91
2022-10-07T05:05:44.221Z,89.65
2022-10-07T05:08:11.702Z,89.65
2022-10-07T05:10:40.114Z,89.35
2022-10-07T05:13:15.904Z,89.33
2022-10-07T05:15:54.771Z,89.59
2022-10-07T05:18:23.294Z,89.61
2022-10-07T05:20:51.382Z,89.72
2022-10-07T05:23:25.652Z,89.40
2022-10-07T05:26:05.180Z,90.30
2022-10-07T05:28:32.248Z,90.14
2022-10-07T05:31:11.031Z,89.71
2022-10-07T05:33:38.794Z,89.38
2022-10-07T05:36:07.164Z,89.41
2022-10-07T05:38:34.418Z,89.33
2022-10-07T05:41:03.096Z,89.30
2022-10-07T05:43:32.507Z,89.38
2022-10-07T05:46:01.534Z,89.30
2022-10-07T05:48:29.960Z,89.21
2022-10-07T05:50:59.929Z,89.09
2022-10-07T05:53:30.931Z,88.79
2022-10-07T05:55:57.973Z,88.72
2022-10-07T05:58:24.815Z,88.80
2022-10-07T06:01:01.005Z,88.83
2022-10-07T06:03:30.838Z,88.80
2022-10-07T06:05:59.637Z,88.80
2022-10-07T06:08:27.251Z,88.73
2022-10-07T06:11:12.411Z,88.57
2022-10-07T06:13:39.251Z,88.52
2022-10-07T06:16:09.226Z,88.62
2022-10-07T06:18:37.197Z,88.52
2022-10-07T06:21:04.861Z,88.64
2022-10-07T06:23:32.565Z,88.64
2022-10-07T06:26:10.633Z,88.67
2022-10-07T06:28:40.205Z,88.74
2022-10-07T06:31:10.181Z,88.44
2022-10-07T06:33:37.407Z,88.49
2022-10-07T06:36:12.474Z,88.75
2022-10-07T06:38:47.587Z,89.42
2022-10-07T06:41:15.114Z,89.17
2022-10-07T06:43:41.921Z,89.12
2022-10-07T06:46:13.380Z,88.79
2022-10-07T06:48:41.797Z,88.50
2022-10-07T06:51:12.797Z,88.35
2022-10-07T06:53:39.592Z,88.42
2022-10-07T06:56:06.738Z,88.30
2022-10-07T06:58:34.112Z,88.19
2022-10-07T07:01:01.069Z,87.56
2022-10-07T07:03:29.148Z,87.41
2022-10-07T07:05:56.618Z,87.32
2022-10-07T07:08:29.265Z,87.35
2022-10-07T07:10:56.337Z,87.37
2022-10-07T07:13:23.169Z,87.26
2022-10-07T07:15:58.942Z,87.25
2022-10-07T07:18:26.349Z,87.10
2022-10-07T07:20:53.275Z,87.38
2022-10-07T07:23:20.115Z,87.40
2022-10-07T07:25:46.936Z,87.30
2022-10-07T07:28:15.921Z,86.87
2022-10-07T07:30:43.154Z,86.93
2022-10-07T07:33:10.156Z,87.56
2022-10-07T07:35:41.566Z,87.92
2022-10-07T07:38:09.201Z,87.64
2022-10-07T07:40:37.738Z,87.15
2022-10-07T07:43:05.834Z,87.30
2022-10-07T07:45:36.865Z,87.25
2022-10-07T07:48:04.382Z,88.97
2022-10-07T07:50:31.132Z,90.78
2022-10-07T07:53:00.297Z,90.37
2022-10-07T07:55:27.086Z,89.94
2022-10-07T07:57:53.871Z,89.23
2022-10-07T08:00:20.727Z,88.58
2022-10-07T08:02:47.769Z,88.91
2022-10-07T08:05:14.585Z,88.38
2022-10-07T08:07:42.156Z,90.50
2022-10-07T08:10:09.359Z,90.17
2022-10-07T08:12:36.334Z,88.63
2022-10-07T08:15:03.219Z,88.26
2022-10-07T08:17:29.987Z,87.36
2022-10-07T08:19:56.758Z,87.54
2022-10-07T08:22:23.574Z,86.80
2022-10-07T08:24:50.541Z,85.82
2022-10-07T08:27:17.384Z,86.12
2022-10-07T08:29:44.125Z,86.34
2022-10-07T08:32:10.940Z,85.19
2022-10-07T08:34:37.805Z,84.46
2022-10-07T08:37:04.949Z,85.11
2022-10-07T08:39:34.510Z,84.67
2022-10-07T08:42:18.745Z,84.25
2022-10-07T08:44:48.578Z,83.46
2022-10-07T08:47:25.198Z,84.12
2022-10-07T08:50:20.078Z,84.16
2022-10-07T08:52:51.236Z,83.46
2022-10-07T08:55:24.454Z,83.60
2022-10-07T08:58:26.645Z,83.52
2022-10-07T09:01:26.856Z,84.02
2022-10-07T09:04:34.860Z,83.73
2022-10-07T09:07:08.320Z,83.59
2022-10-07T09:09:44.846Z,83.60
2022-10-07T09:12:23.469Z,83.69
2022-10-07T09:14:55.876Z,83.18
2022-10-07T09:17:48.634Z,82.15
2022-10-07T09:20:20.158Z,82.46
2022-10-07T09:22:57.420Z,81.78
2022-10-07T09:25:29.914Z,81.99
2022-10-07T09:27:57.371Z,82.00
2022-10-07T09:30:25.621Z,82.29
2022-10-07T09:32:54.694Z,81.75
2022-10-07T09:35:29.860Z,82.08
2022-10-07T09:38:08.451Z,82.47
2022-10-07T09:40:59.524Z,81.21
2022-10-07T09:43:27.774Z,81.08
2022-10-07T09:45:56.342Z,81.11
2022-10-07T09:48:29.146Z,80.78
2022-10-07T09:51:16.999Z,80.83
2022-10-07T09:54:03.150Z,80.59
2022-10-07T09:56:39.611Z,79.70
2022-10-07T09:59:18.488Z,79.84
2022-10-07T10:01:56.953Z,78.67
2022-10-07T10:04:32.612Z,78.84
2022-10-07T10:07:06.435Z,78.47
2022-10-07T10:09:49.067Z,78.04
2022-10-07T10:12:20.185Z,77.75
2022-10-07T10:14:51.935Z,77.41
2022-10-07T10:17:43.303Z,77.50
2022-10-07T10:20:27.741Z,75.67
2022-10-07T10:22:55.352Z,76.69
2022-10-07T10:26:06.478Z,76.79
2022-10-07T10:28:51.331Z,75.30
2022-10-07T10:31:55.517Z,74.11
2022-10-07T10:34:45.648Z,74.09
2022-10-07T10:37:26.597Z,74.55
2022-10-07T10:40:19.132Z,74.47
2022-10-07T10:43:41.808Z,74.21
2022-10-07T10:46:17.985Z,74.68
2022-10-07T10:48:58.159Z,74.26
2022-10-07T10:51:43.762Z,73.66
2022-10-07T10:54:25.004Z,73.09
2022-10-07T10:57:12.295Z,73.30
2022-10-07T11:00:07.067Z,71.98
2022-10-07T11:02:47.134Z,72.90
2022-10-07T11:05:18.187Z,71.67
2022-10-07T11:08:04.716Z,71.56
2022-10-07T11:10:40.896Z,72.41
2022-10-07T11:13:13.748Z,72.12
2022-10-07T11:15:47.825Z,71.22
2022-10-07T11:18:29.066Z,70.54
2022-10-07T11:21:03.822Z,71.14
2022-10-07T11:23:41.571Z,70.61
2022-10-07T11:26:32.383Z,69.85
2022-10-07T11:29:11.624Z,70.01
2022-10-07T11:31:42.744Z,70.72
2022-10-07T11:34:16.848Z,69.79
2022-10-07T11:36:43.758Z,70.16
2022-10-07T11:39:10.875Z,69.01
2022-10-07T11:41:51.142Z,69.12
2022-10-07T11:44:45.305Z,69.64
2022-10-07T11:47:19.012Z,69.16
2022-10-07T11:50:05.238Z,69.83
2022-10-07T11:52:38.248Z,69.11
2022-10-07T11:55:12.227Z,67.82
2022-10-07T11:57:43.996Z,66.63
2022-10-07T12:00:33.040Z,66.13
2022-10-07T12:03:18.145Z,66.15
2022-10-07T12:05:50.984Z,64.61
2022-10-07T12:08:36.874Z,64.94
2022-10-07T12:11:32.727Z,64.98
2022-10-07T12:14:33.341Z,65.27
2022-10-07T12:17:18.843Z,64.36
2022-10-07T12:19:45.786Z,64.32
2022-10-07T12:22:18.117Z,63.77
2022-10-07T12:24:47.262Z,64.79
2022-10-07T12:27:25.581Z,64.74
2022-10-07T12:29:59.993Z,65.19
2022-10-07T12:32:46.453Z,64.38
2022-10-07T12:35:35.054Z,65.15
2022-10-07T12:38:11.329Z,64.64
2022-10-07T12:40:38.717Z,65.33
2022-10-07T12:43:18.243Z,64.70
2022-10-07T12:45:45.354Z,64.01
2022-10-07T12:48:20.964Z,63.25
2022-10-07T12:50:51.130Z,63.31
2022-10-07T12:53:19.548Z,63.03
2022-10-07T12:55:52.657Z,63.71
2022-10-07T12:59:12.243Z,63.00
2022-10-07T13:02:26.356Z,63.52
2022-10-07T13:05:26.667Z,63.22
2022-10-07T13:08:42.036Z,62.22
2022-10-07T13:11:47.000Z,62.74
2022-10-07T13:14:33.674Z,61.99
2022-10-07T13:17:41.802Z,62.46
2022-10-07T13:20:14.945Z,62.04
2022-10-07T13:22:47.967Z,62.00
2022-10-07T13:25:19.941Z,62.06
2022-10-07T13:27:56.146Z,62.62
2022-10-07T13:30:57.204Z,62.21
2022-10-07T13:33:30.702Z,61.16
2022-10-07T13:36:21.989Z,61.11
2022-10-07T13:38:53.729Z,61.43
2022-10-07T13:41:27.661Z,61.34
2022-10-07T13:44:03.969Z,59.46
2022-10-07T13:46:34.492Z,59.56
2022-10-07T13:49:02.714Z,60.17
2022-10-07T13:51:34.940Z,60.80
2022-10-07T13:54:05.052Z,60.27
2022-10-07T13:56:40.373Z,60.42
2022-10-07T13:59:16.133Z,61.01
2022-10-07T14:01:43.313Z,60.30
2022-10-07T14:04:20.133Z,60.99
2022-10-07T14:06:57.725Z,60.49
2022-10-07T14:09:36.546Z,60.50
2022-10-07T14:12:34.540Z,59.68
2022-10-07T14:15:06.510Z,61.02
2022-10-07T14:17:41.590Z,61.50
2022-10-07T14:20:22.361Z,60.75
2022-10-07T14:22:56.427Z,61.00
2022-10-07T14:25:29.752Z,60.27
2022-10-07T14:28:19.388Z,60.51
2022-10-07T14:31:25.826Z,60.97
2022-10-07T14:34:23.529Z,59.88
2022-10-07T14:37:17.528Z,60.27
2022-10-07T14:39:48.008Z,60.52
2022-10-07T14:42:25.519Z,61.79
2022-10-07T14:44:55.129Z,60.56
2022-10-07T14:47:28.356Z,61.35
2022-10-07T14:50:08.550Z,62.20
2022-10-07T14:53:00.046Z,62.67
2022-10-07T14:55:29.703Z,61.90
2022-10-07T14:57:56.390Z,62.80
2022-10-07T15:00:27.949Z,62.63
2022-10-07T15:02:57.962Z,63.73
2022-10-07T15:05:26.583Z,62.73
2022-10-07T15:07:53.465Z,62.68
2022-10-07T15:10:23.452Z,64.28
2022-10-07T15:12:50.437Z,63.69
2022-10-07T15:15:18.465Z,63.70
2022-10-07T15:17:45.567Z,64.26
2022-10-07T15:20:15.215Z,64.51
2022-10-07T15:22:43.430Z,64.10
2022-10-07T15:25:12.325Z,64.50
2022-10-07T15:27:39.220Z,64.82
2022-10-07T15:30:07.414Z,65.63
2022-10-07T15:32:34.565Z,64.63
2022-10-07T15:35:01.797Z,65.72
2022-10-07T15:37:28.855Z,65.23
2022-10-07T15:39:55.855Z,66.46
2022-10-07T15:42:26.321Z,66.39
2022-10-07T15:44:53.787Z,65.20
2022-10-07T15:47:21.057Z,64.88
2022-10-07T15:49:49.224Z,65.31
2022-10-07T15:52:16.484Z,65.00
2022-10-07T15:54:45.298Z,65.25
2022-10-07T15:57:12.727Z,65.17
2022-10-07T15:59:39.655Z,65.21
2022-10-07T16:02:09.357Z,65.33
2022-10-07T16:04:41.305Z,65.61
2022-10-07T16:07:11.484Z,65.96
2022-10-07T16:09:39.289Z,65.90
2022-10-07T16:12:07.043Z,67.39
2022-10-07T16:14:33.855Z,67.64
2022-10-07T16:17:00.840Z,67.89
2022-10-07T16:19:35.983Z,68.63
2022-10-07T16:22:02.977Z,67.68
2022-10-07T16:24:34.808Z,69.62
2022-10-07T16:27:02.116Z,70.26
2022-10-07T16:29:49.425Z,69.17
2022-10-07T16:32:16.692Z,68.55
2022-10-07T16:34:44.651Z,68.73
2022-10-07T16:37:13.041Z,68.75
2022-10-07T16:39:39.935Z,69.63
2022-10-07T16:42:06.891Z,69.74
2022-10-07T16:44:33.714Z,70.05
2022-10-07T16:47:01.395Z,69.96
2022-10-07T16:49:30.506Z,70.03
2022-10-07T16:51:58.111Z,70.27
2022-10-07T16:54:25.570Z,71.07
2022-10-07T16:56:53.240Z,71.56
2022-10-07T16:59:35.716Z,71.29
2022-10-07T17:02:02.796Z,71.81
2022-10-07T17:04:29.964Z,71.72
2022-10-07T17:06:56.899Z,71.92
2022-10-07T17:09:30.932Z,72.44
2022-10-07T17:12:01.489Z,72.45
2022-10-07T17:14:31.762Z,72.12
2022-10-07T17:16:59.410Z,72.58
2022-10-07T17:19:29.301Z,72.58
2022-10-07T17:21:59.696Z,73.44
2022-10-07T17:24:27.145Z,74.23
2022-10-07T17:26:54.193Z,74.02
2022-10-07T17:29:34.827Z,74.91
2022-10-07T17:32:03.112Z,74.11
2022-10-07T17:34:30.037Z,74.93
2022-10-07T17:36:58.990Z,75.63
2022-10-07T17:39:33.212Z,78.31
2022-10-07T17:42:00.000Z,81.67
2022-10-07T17:44:27.029Z,82.46
2022-10-07T17:46:55.761Z,84.62
2022-10-07T17:49:29.528Z,86.75
2022-10-07T17:51:57.539Z,87.92
2022-10-07T17:54:24.575Z,88.48
2022-10-07T17:56:51.443Z,88.96
2022-10-07T17:59:18.490Z,89.62
2022-10-07T18:01:45.405Z,90.51
2022-10-07T18:04:15.955Z,91.45
2022-10-07T18:06:46.968Z,92.60
2022-10-07T18:09:15.642Z,93.11
2022-10-07T18:12:00.865Z,92.80
2022-10-07T18:14:51.129Z,93.57
2022-10-07T18:17:20.827Z,94.62
2022-10-07T18:19:47.951Z,94.86
2022-10-07T18:22:14.744Z,94.12
2022-10-07T18:24:41.663Z,93.55
2022-10-07T18:27:08.598Z,93.23
2022-10-07T18:29:38.338Z,93.95
2022-10-07T18:32:08.749Z,93.96
2022-10-07T18:34:35.688Z,94.30
2022-10-07T18:37:02.579Z,93.97
2022-10-07T18:39:32.087Z,93.99
2022-10-07T18:41:59.577Z,94.07
2022-10-07T18:44:26.914Z,94.40
2022-10-07T18:46:54.052Z,94.29
2022-10-07T18:49:32.193Z,94.59
2022-10-07T18:51:59.038Z,94.31
2022-10-07T18:54:25.987Z,94.20
2022-10-07T18:56:53.150Z,94.28
2022-10-07T18:59:20.459Z,94.72
2022-10-07T19:01:50.652Z,94.62
2022-10-07T19:04:18.172Z,94.75
2022-10-07T19:06:46.403Z,94.60
2022-10-07T19:09:35.870Z,94.17
2022-10-07T19:12:02.677Z,94.46
2022-10-07T19:14:31.410Z,94.54
2022-10-07T19:16:58.292Z,94.96
2022-10-07T19:19:34.568Z,94.51
2022-10-07T19:22:01.506Z,95.30
2022-10-07T19:24:47.185Z,95.16
2022-10-07T19:27:14.449Z,95.18
2022-10-07T19:29:41.190Z,94.66
2022-10-07T19:32:08.447Z,94.43
2022-10-07T19:34:36.278Z,94.74
2022-10-07T19:37:03.324Z,94.82
2022-10-07T19:39:37.089Z,94.67
2022-10-07T19:42:04.690Z,94.49
2022-10-07T19:44:32.483Z,94.21
2022-10-07T19:47:00.989Z,93.84
2022-10-07T19:49:33.953Z,93.55
2022-10-07T19:52:00.756Z,93.36
2022-10-07T19:54:35.927Z,93.97
2022-10-07T19:57:03.285Z,94.06
2022-10-07T19:59:34.042Z,94.23
2022-10-07T20:02:01.352Z,94.45
2022-10-07T20:04:28.422Z,94.43
2022-10-07T20:06:59.319Z,94.83
2022-10-07T20:09:31.524Z,94.89
2022-10-07T20:11:58.620Z,93.58
2022-10-07T20:14:25.420Z,93.04
2022-10-07T20:16:54.547Z,93.18
2022-10-07T20:19:31.922Z,93.89
2022-10-07T20:22:01.295Z,94.34
2022-10-07T20:24:28.225Z,94.10
2022-10-07T20:26:55.137Z,93.36
2022-10-07T20:29:27.282Z,93.11
2022-10-07T20:31:54.139Z,92.99
2022-10-07T20:34:22.564Z,93.32
2022-10-07T20:36:50.626Z,93.23
2022-10-07T20:39:38.549Z,92.84
2022-10-07T20:42:21.758Z,92.86
2022-10-07T20:44:49.780Z,92.87
2022-10-07T20:47:18.122Z,92.31
2022-10-07T20:49:45.369Z,93.09
2022-10-07T20:52:16.999Z,92.96
2022-10-07T20:54:45.170Z,92.53
2022-10-07T20:57:17.288Z,92.60
2022-10-07T20:59:44.790Z,92.61
2022-10-07T21:02:13.751Z,92.68
2022-10-07T21:04:41.355Z,92.32
2022-10-07T21:07:08.839Z,92.54
2022-10-07T21:09:40.048Z,92.06
2022-10-07T21:12:13.979Z,92.04
2022-10-07T21:14:43.262Z,92.27
2022-10-07T21:17:11.171Z,91.53
2022-10-07T21:19:38.043Z,91.45
2022-10-07T21:22:06.159Z,92.06
2022-10-07T21:24:36.325Z,91.71
2022-10-07T21:27:05.188Z,91.29
2022-10-07T21:29:36.424Z,90.78
2022-10-07T21:32:06.586Z,91.48
2022-10-07T21:34:33.409Z,92.58
2022-10-07T21:37:00.347Z,92.26
2022-10-07T21:39:31.321Z,92.01
2022-10-07T21:41:58.899Z,91.90
2022-10-07T21:44:27.069Z,92.17
2022-10-07T21:46:53.821Z,91.53
2022-10-07T21:49:20.690Z,91.52
2022-10-07T21:51:47.571Z,91.70
2022-10-07T21:54:14.581Z,91.39
2022-10-07T21:56:43.767Z,91.33
2022-10-07T21:59:10.608Z,91.26
2022-10-07T22:01:38.318Z,90.71
2022-10-07T22:04:05.371Z,91.07
2022-10-07T22:06:51.263Z,91.92
2022-10-07T22:09:30.212Z,91.75
2022-10-07T22:11:57.855Z,91.89
2022-10-07T22:14:24.677Z,91.73
2022-10-07T22:16:51.530Z,91.89
2022-10-07T22:19:18.274Z,91.88
2022-10-07T22:21:45.984Z,91.70
2022-10-07T22:24:14.213Z,91.52
2022-10-07T22:26:46.107Z,91.80
2022-10-07T22:29:15.594Z,92.32
2022-10-07T22:31:42.457Z,91.90
2022-10-07T22:34:29.309Z,92.26
2022-10-07T22:36:58.225Z,91.40
2022-10-07T22:39:32.817Z,91.46
2022-10-07T22:42:01.359Z,91.75
2022-10-07T22:44:28.428Z,91.94
2022-10-07T22:46:56.232Z,91.89
2022-10-07T22:49:30.022Z,91.95
2022-10-07T22:51:59.091Z,91.54
2022-10-07T22:54:26.233Z,91.29
2022-10-07T22:56:53.011Z,91.07
2022-10-07T22:59:29.607Z,90.13
2022-10-07T23:01:56.407Z,90.49
2022-10-07T23:04:23.201Z,90.58
2022-10-07T23:06:49.992Z,90.65
2022-10-07T23:09:16.732Z,91.00
2022-10-07T23:11:43.603Z,90.72
2022-10-07T23:14:10.470Z,90.71
2022-10-07T23:16:37.272Z,90.85
2022-10-07T23:19:04.047Z,90.47
2022-10-07T23:21:34.592Z,90.54
2022-10-07T23:24:06.842Z,90.80
2022-10-07T23:26:34.773Z,90.59
2022-10-07T23:29:02.525Z,90.42
2022-10-07T23:31:32.057Z,90.30
2022-10-07T23:34:00.347Z,90.55
2022-10-07T23:36:27.965Z,90.73
2022-10-07T23:38:55.116Z,89.96
2022-10-07T23:41:27.063Z,90.08
2022-10-07T23:44:04.970Z,90.18
2022-10-07T23:46:34.052Z,89.72
2022-10-07T23:49:01.613Z,89.99
2022-10-07T23:51:29.192Z,90.42
2022-10-07T23:53:57.041Z,90.05
2022-10-07T23:56:24.101Z,90.21
2022-10-07T23:58:51.120Z,89.85
